Time;durP1;ratioP1;P1;durP2;ratioP2;P2;SDS_P1;SDS_P2;PMS_P1;PMS_P2;Temp;Humidity;BMP_temperature;BMP_pressure;BME280_temperature;BME280_humidity;BME280_pressure;Samples;Min_cycle;Max_cycle;Signal;HPM_P1;HPM_P2
2023/12/29 00:02:21;;;;;;;4.20;1.25;;;;;;;17.74;46.21;100756.97;5053947;28;20520;-61
2023/12/29 00:04:46;;;;;;;7.40;1.20;;;;;;;17.75;45.76;100767.66;5053671;28;20121;-60
2023/12/29 00:07:12;;;;;;;4.78;1.13;;;;;;;17.73;44.98;100761.56;5037405;28;20033;-60
2023/12/29 00:09:40;;;;;;;7.28;0.93;;;;;;;17.73;46.01;100768.84;5054245;28;20049;-61
2023/12/29 00:12:06;;;;;;;7.40;0.98;;;;;;;17.70;45.61;100767.31;5054775;28;20040;-62
2023/12/29 00:14:32;;;;;;;6.13;0.73;;;;;;;17.68;46.11;100774.78;5053792;28;20469;-61
2023/12/29 00:16:57;;;;;;;3.30;0.95;;;;;;;17.67;45.58;100762.25;5037532;28;20037;-61
2023/12/29 00:19:23;;;;;;;2.20;0.70;;;;;;;17.66;45.48;100749.75;5055006;28;20029;-61
2023/12/29 00:21:48;;;;;;;4.57;0.80;;;;;;;17.65;45.76;100753.47;5072290;28;20053;-61
2023/12/29 00:24:13;;;;;;;2.72;0.80;;;;;;;17.63;45.58;100755.53;5073640;28;20403;-61
2023/12/29 00:26:39;;;;;;;3.08;1.00;;;;;;;17.66;45.55;100746.19;5073690;28;20062;-61
2023/12/29 00:29:06;;;;;;;3.00;0.75;;;;;;;17.68;46.54;100766.66;5073244;28;20029;-61
2023/12/29 00:31:31;;;;;;;2.22;0.60;;;;;;;17.69;45.65;100757.53;5074583;28;20112;-61
2023/12/29 00:33:57;;;;;;;3.60;0.95;;;;;;;17.69;45.81;100752.09;5073349;28;20590;-60
2023/12/29 00:36:22;;;;;;;4.97;1.02;;;;;;;17.67;45.85;100743.28;5074750;28;20499;-61
2023/12/29 00:38:49;;;;;;;6.28;1.23;;;;;;;17.66;45.75;100736.22;5056598;28;20415;-62
2023/12/29 00:41:14;;;;;;;5.68;1.13;;;;;;;17.63;45.41;100747.41;5056856;28;20032;-60
2023/12/29 00:43:39;;;;;;;11.55;1.45;;;;;;;17.64;46.31;100743.66;5073517;28;20041;-61
2023/12/29 00:46:05;;;;;;;5.18;0.90;;;;;;;17.62;45.39;100748.41;5074679;28;20509;-61
2023/12/29 00:48:31;;;;;;;2.45;0.82;;;;;;;17.60;46.07;100739.63;5072942;28;20047;-62
2023/12/29 00:50:56;;;;;;;9.52;1.00;;;;;;;17.64;45.42;100735.53;5072969;28;20024;-61
2023/12/29 00:53:22;;;;;;;7.18;1.10;;;;;;;17.60;45.89;100726.06;5073271;28;20037;-61
2023/12/29 00:55:47;;;;;;;5.72;1.15;;;;;;;17.62;46.34;100725.88;5073382;28;20017;-61
2023/12/29 00:58:13;;;;;;;3.35;0.90;;;;;;;17.62;45.49;100715.03;5072912;28;20058;-61
2023/12/29 01:00:38;;;;;;;3.88;0.95;;;;;;;17.61;46.14;100714.22;5073046;28;20513;-61
2023/12/29 01:03:04;;;;;;;2.78;0.98;;;;;;;17.60;45.54;100707.13;5072861;28;20081;-61
2023/12/29 01:05:29;;;;;;;6.15;1.42;;;;;;;17.59;45.77;100699.19;5072559;28;20063;-61
2023/12/29 01:07:55;;;;;;;0.98;0.50;;;;;;;17.55;45.82;100693.25;5056571;28;20074;-61
2023/12/29 01:10:20;;;;;;;8.98;1.08;;;;;;;17.60;45.47;100698.97;5072194;28;20086;-61
2023/12/29 01:12:45;;;;;;;2.85;0.93;;;;;;;17.60;45.85;100700.84;5056567;28;20020;-61
2023/12/29 01:15:11;;;;;;;4.85;1.10;;;;;;;17.61;46.10;100697.13;5056088;28;20031;-62
2023/12/29 01:17:36;;;;;;;5.45;1.00;;;;;;;17.59;46.05;100697.28;5074054;28;20020;-61
2023/12/29 01:20:04;;;;;;;2.83;0.90;;;;;;;17.58;45.41;100711.88;5073482;28;20032;-61
2023/12/29 01:22:29;;;;;;;6.47;1.75;;;;;;;17.55;45.93;100693.25;5056427;28;20020;-61
2023/12/29 01:24:55;;;;;;;9.52;1.40;;;;;;;17.53;45.50;100699.84;5073839;28;20070;-61
2023/12/29 01:27:20;;;;;;;2.28;1.95;;;;;;;17.52;45.72;100688.16;5072371;28;20020;-61
2023/12/29 01:29:46;;;;;;;4.03;1.13;;;;;;;17.53;46.37;100679.03;5073466;28;20031;-62
2023/12/29 01:32:12;;;;;;;6.28;1.20;;;;;;;17.53;46.18;100691.72;5073591;28;20078;-61
2023/12/29 01:34:37;;;;;;;9.40;1.40;;;;;;;17.52;45.91;100685.44;5073552;28;20020;-61
2023/12/29 01:37:03;;;;;;;9.15;1.33;;;;;;;17.54;46.13;100696.13;5072328;28;20111;-61
2023/12/29 01:39:29;;;;;;;5.70;1.02;;;;;;;17.51;45.64;100689.16;5055571;28;20016;-60
2023/12/29 01:41:55;;;;;;;4.28;1.30;;;;;;;17.47;46.21;100687.84;5072920;28;20056;-61
2023/12/29 01:44:22;;;;;;;5.25;1.17;;;;;;;17.47;46.18;100695.97;5055285;28;20025;-61
2023/12/29 01:46:52;;;;;;;9.23;1.65;;;;;;;17.47;46.08;100693.28;5073462;28;20158;-61
2023/12/29 01:49:18;;;;;;;3.33;1.10;;;;;;;17.49;45.61;100699.34;5072262;28;20094;-61
2023/12/29 01:51:44;;;;;;;5.25;0.95;;;;;;;17.51;46.03;100693.75;5055388;28;20031;-61
2023/12/29 01:54:10;;;;;;;5.75;1.08;;;;;;;17.49;46.35;100699.34;5071856;28;20103;-61
2023/12/29 01:56:37;;;;;;;8.43;1.25;;;;;;;17.45;46.50;100693.44;5071040;28;20024;-61
2023/12/29 01:59:02;;;;;;;4.85;1.95;;;;;;;17.46;46.92;100703.25;5071969;28;20028;-61
2023/12/29 02:01:28;;;;;;;3.17;1.02;;;;;;;17.44;46.84;100690.91;5071972;28;20051;-61
2023/12/29 02:03:54;;;;;;;8.80;1.42;;;;;;;17.42;46.77;100687.53;5055302;28;20036;-61
2023/12/29 02:06:19;;;;;;;7.43;1.77;;;;;;;17.44;47.00;100701.75;5073445;28;20082;-61
2023/12/29 02:08:45;;;;;;;4.97;0.88;;;;;;;17.40;46.68;100697.69;5055649;28;20484;-63
2023/12/29 02:11:10;;;;;;;9.32;1.23;;;;;;;17.40;46.59;100692.28;5072070;28;20413;-61
2023/12/29 02:13:35;;;;;;;9.43;1.40;;;;;;;17.42;46.29;100698.34;5071346;28;20036;-61
2023/12/29 02:16:27;;;;;;;5.78;1.60;;;;;;;17.44;46.87;100685.50;5055599;28;20032;-64
2023/12/29 02:18:53;;;;;;;3.55;0.60;;;;;;;17.46;47.29;100699.69;5072952;28;20035;-62
2023/12/29 02:21:24;;;;;;;5.38;0.65;;;;;;;17.46;47.33;100694.28;5072406;28;20037;-61
2023/12/29 02:23:49;;;;;;;4.68;0.88;;;;;;;17.48;47.17;100692.22;5055007;28;20408;-61
2023/12/29 02:26:15;;;;;;;5.13;1.20;;;;;;;17.48;46.45;100692.22;5071881;28;20041;-61
2023/12/29 02:28:44;;;;;;;4.28;0.82;;;;;;;17.48;47.36;100682.25;5071627;28;20034;-61
2023/12/29 02:31:13;;;;;;;1.73;0.80;;;;;;;17.50;47.51;100690.22;5054643;28;20024;-61
2023/12/29 02:33:41;;;;;;;7.65;1.35;;;;;;;17.50;46.70;100681.25;5071759;28;20040;-61
2023/12/29 02:36:06;;;;;;;3.13;0.65;;;;;;;17.49;46.68;100672.25;5071664;28;20033;-61
2023/12/29 02:38:32;;;;;;;5.35;1.90;;;;;;;17.50;46.59;100679.38;5054762;28;20032;-61
2023/12/29 02:40:58;;;;;;;2.95;1.00;;;;;;;17.52;46.54;100671.91;5071782;28;20127;-61
2023/12/29 02:43:23;;;;;;;6.13;1.15;;;;;;;17.48;46.53;100666.00;5071581;28;20402;-61
2023/12/29 02:45:49;;;;;;;6.13;0.75;;;;;;;17.52;46.46;100671.91;5071784;28;20116;-61
2023/12/29 02:48:14;;;;;;;12.95;1.10;;;;;;;17.53;46.96;100672.75;5071504;28;20032;-61
2023/12/29 02:50:39;;;;;;;2.67;0.90;;;;;;;17.51;46.97;100664.78;5072541;28;20045;-61
2023/12/29 02:53:05;;;;;;;2.47;0.88;;;;;;;17.55;46.80;100677.00;5071198;28;20033;-61
2023/12/29 02:55:30;;;;;;;6.80;1.10;;;;;;;17.55;46.14;100659.91;5072741;28;20052;-61
2023/12/29 02:57:56;;;;;;;6.45;1.45;;;;;;;17.56;46.38;100648.88;5071409;28;20028;-61
2023/12/29 03:00:21;;;;;;;5.80;1.58;;;;;;;17.58;46.83;100676.66;5071281;28;20040;-61
2023/12/29 03:02:46;;;;;;;4.72;1.30;;;;;;;17.57;46.31;100653.28;5054405;28;20032;-60
2023/12/29 03:05:12;;;;;;;3.83;0.60;;;;;;;17.61;47.51;100661.91;5070981;28;20042;-62
2023/12/29 03:07:39;;;;;;;6.55;2.03;;;;;;;17.58;46.29;100665.81;5057029;28;20036;-61
2023/12/29 03:10:05;;;;;;;4.68;0.75;;;;;;;17.63;46.76;100658.00;5077176;28;20035;-61
2023/12/29 03:12:31;;;;;;;1.90;0.52;;;;;;;17.65;46.98;100672.19;5096835;28;20092;-61
2023/12/29 03:14:56;;;;;;;5.85;0.70;;;;;;;17.70;46.40;100680.63;5078383;28;20040;-61
2023/12/29 03:17:21;;;;;;;5.53;1.27;;;;;;;17.71;46.62;100662.50;5096376;28;20028;-61
2023/12/29 03:19:48;;;;;;;5.90;0.88;;;;;;;17.71;46.42;100657.09;5095246;28;20491;-61
2023/12/29 03:22:13;;;;;;;4.72;1.20;;;;;;;17.70;46.32;100653.53;5096318;28;20047;-61
2023/12/29 03:24:41;;;;;;;6.03;1.10;;;;;;;17.70;46.51;100664.38;5078063;28;20024;-61
2023/12/29 03:27:06;;;;;;;5.60;1.08;;;;;;;17.70;47.03;100658.94;5095167;28;20036;-61
2023/12/29 03:29:31;;;;;;;7.32;1.08;;;;;;;17.71;46.90;100655.22;5077958;28;20051;-61
2023/12/29 03:31:57;;;;;;;3.65;0.90;;;;;;;17.70;47.00;100664.38;5096130;28;20115;-61
2023/12/29 03:34:22;;;;;;;8.38;1.80;;;;;;;17.73;47.09;100658.59;5078349;28;20036;-61
2023/12/29 03:36:47;;;;;;;4.53;0.90;;;;;;;17.73;46.31;100664.00;5096610;28;20028;-61
2023/12/29 03:39:13;;;;;;;4.30;0.88;;;;;;;17.73;46.47;100685.69;5096557;28;20041;-61
2023/12/29 03:41:38;;;;;;;7.50;1.63;;;;;;;17.74;46.40;100681.97;5096471;28;20399;-61
2023/12/29 03:44:05;;;;;;;1.33;0.70;;;;;;;17.74;46.96;100684.69;5096470;28;20032;-62
2023/12/29 03:46:31;;;;;;;4.22;1.38;;;;;;;17.68;46.63;100677.25;5079335;28;20515;-61
2023/12/29 03:48:57;;;;;;;8.10;1.45;;;;;;;17.71;46.81;100666.06;5094896;28;20036;-61
2023/12/29 03:51:22;;;;;;;6.80;1.88;;;;;;;17.74;46.59;100687.38;5096037;28;20040;-61
2023/12/29 03:53:48;;;;;;;7.28;0.73;;;;;;;17.73;46.63;100661.31;5096440;28;20115;-61
2023/12/29 03:56:16;;;;;;;10.27;1.13;;;;;;;17.71;47.10;100663.38;5094847;28;20028;-60
2023/12/29 03:58:41;;;;;;;8.65;1.30;;;;;;;17.70;47.18;100664.38;5094881;28;20028;-61
2023/12/29 04:01:11;;;;;;;18.25;1.77;;;;;;;17.70;46.91;100663.56;5094660;28;20098;-61
2023/12/29 04:03:37;;;;;;;7.85;1.83;;;;;;;17.69;46.73;100651.88;5094930;28;20044;-61
2023/12/29 04:06:03;;;;;;;3.53;0.80;;;;;;;17.65;47.29;100650.53;5094713;28;20495;-61
2023/12/29 04:08:29;;;;;;;5.43;1.08;;;;;;;17.70;46.94;100658.94;5095408;28;20491;-61
2023/12/29 04:10:55;;;;;;;8.55;1.10;;;;;;;17.72;46.67;100656.94;5094004;28;20119;-61
2023/12/29 04:13:20;;;;;;;8.57;1.30;;;;;;;17.76;46.42;100660.94;5095344;28;20081;-61
2023/12/29 04:15:45;;;;;;;7.43;1.90;;;;;;;17.73;46.68;100668.59;5093896;28;20039;-61
2023/12/29 04:18:11;;;;;;;3.70;0.70;;;;;;;17.74;46.90;100660.28;5093060;28;20028;-62
2023/12/29 04:20:36;;;;;;;3.65;0.88;;;;;;;17.73;46.73;100664.00;5095303;28;20024;-60
2023/12/29 04:23:02;;;;;;;5.80;0.98;;;;;;;17.73;46.09;100666.72;5092851;28;20515;-61
2023/12/29 04:25:28;;;;;;;3.33;1.50;;;;;;;17.72;46.53;100673.19;5095120;28;20036;-61
2023/12/29 04:27:53;;;;;;;2.65;1.02;;;;;;;17.72;46.40;100658.78;5095197;28;20038;-61
2023/12/29 04:30:19;;;;;;;4.78;0.88;;;;;;;17.71;46.12;100660.66;5095141;28;20044;-61
2023/12/29 04:32:44;;;;;;;9.10;1.08;;;;;;;17.72;46.76;100667.78;5093849;28;20047;-61
2023/12/29 04:35:12;;;;;;;3.15;0.88;;;;;;;17.71;46.42;100668.78;5093587;28;20036;-61
2023/12/29 04:37:38;;;;;;;6.05;0.70;;;;;;;17.71;46.13;100676.91;5093476;28;20039;-61
2023/12/29 04:40:04;;;;;;;6.80;1.45;;;;;;;17.67;46.23;100672.84;5094842;28;20394;-61
2023/12/29 04:42:30;;;;;;;4.03;1.00;;;;;;;17.65;46.44;100661.38;5094916;28;20067;-61
2023/12/29 04:44:55;;;;;;;4.85;0.70;;;;;;;17.66;46.94;100668.47;5093408;28;20063;-61
2023/12/29 04:47:20;;;;;;;7.47;1.08;;;;;;;17.63;47.05;100658.00;5093567;28;20460;-61
2023/12/29 04:49:46;;;;;;;3.08;0.85;;;;;;;17.61;46.71;100654.63;5093380;28;20039;-61
2023/12/29 04:52:11;;;;;;;5.97;1.10;;;;;;;17.62;46.88;100658.16;5093427;28;20032;-61
2023/12/29 04:54:37;;;;;;;5.05;0.80;;;;;;;17.58;47.00;100671.25;5093130;28;20039;-61
2023/12/29 04:57:02;;;;;;;4.38;1.00;;;;;;;17.58;46.27;100659.56;5093290;28;20135;-61
2023/12/29 04:59:28;;;;;;;6.55;1.00;;;;;;;17.59;47.16;100666.66;5075823;28;20498;-61
2023/12/29 05:01:53;;;;;;;4.72;0.95;;;;;;;17.57;47.17;100663.28;5094736;28;20372;-61
2023/12/29 05:04:18;;;;;;;8.27;1.38;;;;;;;17.60;47.00;100663.78;5094215;28;20070;-61
2023/12/29 05:06:44;;;;;;;8.85;1.30;;;;;;;17.59;46.46;100647.72;5093198;28;20036;-61
2023/12/29 05:09:10;;;;;;;4.65;1.40;;;;;;;17.56;46.26;100656.19;5094227;28;20040;-61
2023/12/29 05:11:36;;;;;;;3.78;1.23;;;;;;;17.55;46.88;100647.22;5092876;28;20406;-61
2023/12/29 05:14:01;;;;;;;3.97;0.70;;;;;;;17.56;46.72;100645.34;5076262;28;20495;-61
2023/12/29 05:16:26;;;;;;;6.70;0.90;;;;;;;17.55;46.79;100644.50;5094120;28;20028;-60
2023/12/29 05:18:52;;;;;;;6.90;1.02;;;;;;;17.53;47.05;100660.06;5075222;28;20458;-61
2023/12/29 05:21:18;;;;;;;1.98;1.00;;;;;;;17.54;46.84;100669.91;5092561;28;20028;-61
2023/12/29 05:23:47;;;;;;;3.38;0.80;;;;;;;17.53;46.82;100653.81;5092614;28;20028;-61
2023/12/29 05:26:13;;;;;;;3.30;1.15;;;;;;;17.53;46.99;100665.47;5094051;28;20040;-61
2023/12/29 05:28:39;;;;;;;4.70;1.50;;;;;;;17.54;46.63;100653.63;5093948;28;20495;-61
2023/12/29 05:31:04;;;;;;;3.20;1.52;;;;;;;17.53;46.76;100646.53;5093531;28;20052;-61
2023/12/29 05:33:31;;;;;;;10.77;1.00;;;;;;;17.54;46.19;100658.22;5075906;28;20035;-61
2023/12/29 05:35:57;;;;;;;3.58;0.77;;;;;;;17.50;46.14;100656.88;5092837;28;20056;-61
2023/12/29 05:38:22;;;;;;;5.18;0.82;;;;;;;17.50;46.90;100649.59;5092700;28;20067;-61
2023/12/29 05:40:48;;;;;;;3.47;0.73;;;;;;;17.52;46.56;100658.38;5093681;28;20028;-61
2023/12/29 05:43:14;;;;;;;10.82;1.10;;;;;;;17.51;46.76;100651.25;5092457;28;20032;-61
2023/12/29 05:45:40;;;;;;;6.25;1.08;;;;;;;17.52;46.80;100646.69;5091960;28;20419;-61
2023/12/29 05:48:06;;;;;;;1.88;0.73;;;;;;;17.51;46.64;100653.97;5092307;28;20028;-61
2023/12/29 05:50:31;;;;;;;4.75;1.20;;;;;;;17.47;46.34;100663.47;5093427;28;20406;-61
2023/12/29 05:52:56;;;;;;;5.45;0.95;;;;;;;17.46;46.96;100657.22;5092252;28;20115;-61
2023/12/29 05:55:22;;;;;;;7.43;1.25;;;;;;;17.47;46.51;100660.78;5093578;28;20028;-61
2023/12/29 05:57:47;;;;;;;5.38;0.70;;;;;;;17.48;46.43;100654.31;5092242;28;20111;-61
2023/12/29 06:00:14;;;;;;;1.83;0.80;;;;;;;17.47;47.21;100658.88;5093416;28;20491;-61
2023/12/29 06:02:41;;;;;;;7.32;0.90;;;;;;;17.48;46.79;100654.31;5092147;28;20119;-61
2023/12/29 06:05:07;;;;;;;4.63;0.75;;;;;;;17.51;46.78;100662.09;5091302;28;20139;-61
2023/12/29 06:07:33;;;;;;;5.20;0.65;;;;;;;17.50;46.35;100646.03;5091939;28;20062;-61
2023/12/29 06:09:59;;;;;;;4.95;0.93;;;;;;;17.49;46.92;100645.19;5092043;28;20415;-60
2023/12/29 06:12:25;;;;;;;8.70;1.75;;;;;;;17.50;46.77;100652.31;5093105;28;20020;-61
2023/12/29 06:14:50;;;;;;;1.90;0.93;;;;;;;17.52;47.02;100671.91;5093217;28;20031;-61
2023/12/29 06:17:16;;;;;;;8.27;0.88;;;;;;;17.54;47.13;100650.09;5091915;28;20012;-60
2023/12/29 06:19:41;;;;;;;3.83;1.17;;;;;;;17.54;46.74;100642.81;5093146;28;20356;-61
2023/12/29 06:22:11;;;;;;;3.42;0.88;;;;;;;17.55;46.63;100649.94;5093031;28;20020;-61
2023/12/29 06:24:40;;;;;;;5.18;0.73;;;;;;;17.56;47.34;100646.16;5092167;28;20024;-61
2023/12/29 06:27:09;;;;;;;3.97;0.70;;;;;;;17.58;47.23;100655.00;5091871;28;20471;-61
2023/12/29 06:29:35;;;;;;;5.97;1.60;;;;;;;17.61;47.11;100651.94;5092956;28;20051;-61
2023/12/29 06:32:00;;;;;;;5.82;1.67;;;;;;;17.60;47.41;100650.22;5058446;28;20399;-61
2023/12/29 06:34:25;;;;;;;1.80;0.50;;;;;;;17.57;47.00;100647.88;5093084;28;20032;-61
2023/12/29 06:36:52;;;;;;;5.85;0.93;;;;;;;17.57;46.73;100642.44;5092248;28;20111;-61
2023/12/29 06:39:17;;;;;;;2.83;0.52;;;;;;;17.57;47.72;100647.88;5091912;28;20478;-61
2023/12/29 06:41:42;;;;;;;8.10;1.40;;;;;;;17.57;47.35;100641.59;5094459;28;20475;-61
2023/12/29 06:44:08;;;;;;;4.35;0.90;;;;;;;17.59;47.28;100643.09;5079148;28;20479;-67
2023/12/29 06:46:33;;;;;;;4.80;0.98;;;;;;;17.60;47.24;100647.53;5096092;28;20051;-61
2023/12/29 06:48:59;;;;;;;1.45;0.60;;;;;;;17.57;47.30;100642.44;5097196;28;20028;-61
2023/12/29 06:51:24;;;;;;;9.65;0.77;;;;;;;17.58;46.96;100638.72;5096252;28;20036;-61
2023/12/29 06:53:50;;;;;;;5.03;1.25;;;;;;;17.55;47.10;100644.50;5096244;28;20383;-61
2023/12/29 06:56:16;;;;;;;4.38;0.93;;;;;;;17.53;47.31;100641.13;5078813;28;20047;-61
2023/12/29 06:58:43;;;;;;;4.00;1.10;;;;;;;17.56;47.47;100642.66;5095277;28;20036;-61
2023/12/29 07:01:08;;;;;;;4.50;0.85;;;;;;;17.58;46.96;100655.00;5095437;28;20032;-61
2023/12/29 07:03:34;;;;;;;2.78;0.60;;;;;;;17.55;47.48;100652.63;5096351;28;20036;-62
2023/12/29 07:06:03;;;;;;;5.97;0.73;;;;;;;17.50;48.00;100657.72;5070077;28;20032;-61
2023/12/29 07:08:28;;;;;;;7.10;0.90;;;;;;;17.45;47.89;100649.25;5042093;28;20421;-61
2023/12/29 07:10:54;;;;;;;5.50;0.90;;;;;;;17.34;47.73;100652.34;5069286;28;20052;-60
2023/12/29 07:13:19;;;;;;;6.47;0.63;;;;;;;17.28;48.13;100656.63;5038269;28;20033;-61
2023/12/29 07:15:46;;;;;;;5.47;0.70;;;;;;;17.21;47.79;100660.22;5055298;28;20057;-61
2023/12/29 07:18:12;;;;;;;8.95;1.08;;;;;;;17.14;48.01;100664.66;5038511;28;20053;-61
2023/12/29 07:20:37;;;;;;;4.47;1.60;;;;;;;17.05;48.57;100665.69;5056416;28;20460;-61
2023/12/29 07:23:02;;;;;;;7.90;1.85;;;;;;;17.00;49.27;100666.22;5055024;28;20078;-61
2023/12/29 07:25:28;;;;;;;9.52;1.23;;;;;;;16.91;48.79;100666.44;5056032;28;20119;-62
2023/12/29 07:27:53;;;;;;;4.95;1.67;;;;;;;16.83;48.68;100665.41;5054655;28;20033;-62
2023/12/29 07:30:19;;;;;;;4.18;0.88;;;;;;;16.74;49.51;100663.78;5067345;28;20500;-62
2023/12/29 07:32:44;;;;;;;7.25;1.40;;;;;;;16.66;49.57;100668.34;5075693;28;20025;-62
2023/12/29 07:35:10;;;;;;;2.65;0.85;;;;;;;16.57;49.29;100669.38;5074520;28;20032;-62
2023/12/29 07:37:35;;;;;;;8.30;0.73;;;;;;;16.49;50.05;100669.38;5076035;28;20040;-61
2023/12/29 07:40:00;;;;;;;5.30;0.93;;;;;;;16.40;50.25;100671.22;5074276;28;20503;-62
2023/12/29 07:42:26;;;;;;;5.93;0.80;;;;;;;16.30;50.21;100662.47;5075949;28;20033;-62
2023/12/29 07:44:51;;;;;;;7.47;0.90;;;;;;;16.25;49.72;100662.09;5074305;28;20047;-63
2023/12/29 07:47:17;;;;;;;12.35;1.63;;;;;;;16.17;51.01;100672.91;5075606;28;20116;-62
2023/12/29 07:49:42;;;;;;;10.30;2.40;;;;;;;16.10;51.07;100678.19;5075614;28;20044;-62
2023/12/29 07:52:08;;;;;;;7.40;0.82;;;;;;;16.07;50.70;100677.66;5074222;28;20024;-62
2023/12/29 07:54:34;;;;;;;6.40;0.93;;;;;;;16.02;51.13;100675.47;5074107;28;20033;-62
2023/12/29 07:56:59;;;;;;;6.65;0.70;;;;;;;16.00;50.65;100677.47;5074156;28;20074;-61
2023/12/29 07:59:25;;;;;;;8.00;1.10;;;;;;;15.99;51.49;100677.66;5074133;28;20094;-62
2023/12/29 08:01:51;;;;;;;3.03;0.82;;;;;;;15.94;50.66;100671.91;5057512;28;20488;-62
2023/12/29 08:04:16;;;;;;;7.90;1.02;;;;;;;15.88;50.80;100672.59;5073957;28;20047;-61
2023/12/29 08:06:41;;;;;;;6.05;1.10;;;;;;;15.85;50.50;100675.63;5055245;28;20494;-61
2023/12/29 08:09:07;;;;;;;7.50;1.38;;;;;;;15.79;51.42;100673.56;5055470;28;20049;-61
2023/12/29 08:11:33;;;;;;;5.53;0.80;;;;;;;15.79;52.10;100673.56;5053888;28;20063;-62
2023/12/29 08:13:58;;;;;;;9.60;0.93;;;;;;;15.78;52.09;100671.88;5053966;28;20391;-62
2023/12/29 08:16:23;;;;;;;6.90;0.82;;;;;;;15.81;52.67;100685.06;5037620;28;20029;-62
2023/12/29 08:18:49;;;;;;;5.28;0.60;;;;;;;15.83;51.58;100685.75;5055659;28;20078;-61
2023/12/29 08:21:19;;;;;;;4.25;0.80;;;;;;;15.81;52.48;100682.34;5051845;28;20124;-62
2023/12/29 08:23:48;;;;;;;2.42;0.60;;;;;;;15.86;52.31;100680.84;5073921;28;20028;-61
2023/12/29 08:26:14;;;;;;;2.28;0.50;;;;;;;15.91;51.99;100693.88;5056945;28;20028;-63
2023/12/29 08:28:40;;;;;;;5.15;0.57;;;;;;;15.92;51.94;100685.56;5073818;28;20037;-62
2023/12/29 08:31:06;;;;;;;2.58;0.73;;;;;;;15.94;52.20;100677.31;5073489;28;20033;-62
2023/12/29 08:33:32;;;;;;;5.43;0.68;;;;;;;15.95;53.29;100695.19;5057019;28;20131;-61
2023/12/29 08:36:00;;;;;;;2.03;0.63;;;;;;;15.97;52.51;100698.59;5056861;28;20024;-62
2023/12/29 08:38:26;;;;;;;4.38;1.10;;;;;;;15.99;52.57;100696.56;5074889;28;20039;-61
2023/12/29 08:40:52;;;;;;;5.65;0.82;;;;;;;16.02;53.02;100690.84;5073506;28;20036;-61
2023/12/29 08:43:21;;;;;;;3.22;0.70;;;;;;;16.05;52.46;100685.91;5073452;28;20059;-63
2023/12/29 08:45:50;;;;;;;5.95;0.77;;;;;;;16.09;53.07;100681.88;5074467;28;20491;-61
2023/12/29 08:48:15;;;;;;;3.60;0.68;;;;;;;16.12;51.68;100686.09;5056511;28;20044;-62
2023/12/29 08:50:42;;;;;;;2.10;0.70;;;;;;;16.10;51.71;100682.72;5073066;28;20093;-61
2023/12/29 08:53:08;;;;;;;5.93;0.70;;;;;;;16.12;52.38;100686.09;5074480;28;20050;-61
2023/12/29 08:55:33;;;;;;;3.90;1.05;;;;;;;16.12;53.05;100669.88;5072953;28;20496;-61
2023/12/29 08:57:59;;;;;;;4.78;0.75;;;;;;;16.14;53.02;100684.06;5056116;28;20047;-61
2023/12/29 09:00:24;;;;;;;4.78;1.58;;;;;;;16.15;52.70;100674.97;5074161;28;20035;-61
2023/12/29 09:02:49;;;;;;;9.18;1.25;;;;;;;16.14;53.95;100673.25;5073150;28;20424;-61
2023/12/29 09:05:15;;;;;;;6.57;1.05;;;;;;;16.13;52.89;100672.44;5072179;28;20091;-61
2023/12/29 09:07:40;;;;;;;2.05;0.60;;;;;;;16.12;53.13;100669.88;5060639;28;20033;-62
2023/12/29 09:10:11;;;;;;;2.80;0.50;;;;;;;16.11;53.70;100668.19;5054148;28;20508;-64
2023/12/29 09:12:38;;;;;;;2.22;0.70;;;;;;;16.09;53.20;100675.63;5054123;28;20094;-61
2023/12/29 09:15:04;;;;;;;6.82;0.98;;;;;;;16.08;54.38;100674.78;5054031;28;20040;-61
2023/12/29 09:17:29;;;;;;;4.82;0.68;;;;;;;16.09;53.63;100665.66;5053906;28;20033;-61
2023/12/29 09:19:55;;;;;;;6.35;1.80;;;;;;;16.05;53.62;100642.69;5052730;28;20112;-61
2023/12/29 09:22:20;;;;;;;3.25;1.75;;;;;;;16.20;53.09;100632.03;5052849;28;20078;-61
2023/12/29 09:24:46;;;;;;;2.95;0.80;;;;;;;16.20;53.73;100664.47;5053959;28;20056;-61
2023/12/29 09:27:11;;;;;;;3.17;0.63;;;;;;;16.21;54.00;100661.63;5053843;28;20025;-61
2023/12/29 09:29:37;;;;;;;5.28;1.05;;;;;;;16.31;53.15;100648.75;5052606;28;20531;-61
2023/12/29 09:32:03;;;;;;;4.03;0.82;;;;;;;16.33;54.06;100644.03;5053732;28;20504;-61
2023/12/29 09:34:28;;;;;;;3.38;0.80;;;;;;;16.33;54.00;100667.53;5052522;28;20040;-61
2023/12/29 09:36:53;;;;;;;5.30;1.48;;;;;;;16.35;54.04;100665.50;5036006;28;20034;-61
2023/12/29 09:39:19;;;;;;;2.65;0.70;;;;;;;16.37;54.02;100668.88;5052567;28;20125;-61
2023/12/29 09:41:46;;;;;;;10.18;1.10;;;;;;;16.42;53.84;100665.63;5052361;28;20500;-61
2023/12/29 09:44:14;;;;;;;2.63;0.73;;;;;;;16.44;52.82;100664.47;5052329;28;20040;-62
2023/12/29 09:46:42;;;;;;;4.85;1.00;;;;;;;16.47;53.15;100664.13;5052335;28;20115;-61
2023/12/29 09:49:08;;;;;;;3.38;0.73;;;;;;;16.55;52.94;100663.31;5052298;28;20408;-61
2023/12/29 09:51:34;;;;;;;6.32;0.88;;;;;;;16.56;54.01;100664.97;5051970;28;20119;-61
2023/12/29 09:54:00;;;;;;;2.90;1.17;;;;;;;16.62;53.64;100667.84;5051953;28;20033;-61
2023/12/29 09:56:25;;;;;;;3.55;1.40;;;;;;;16.63;53.63;100683.06;5051945;28;20082;-61
2023/12/29 09:58:51;;;;;;;4.70;1.00;;;;;;;16.62;54.32;100683.22;5035441;28;20033;-62
2023/12/29 10:01:22;;;;;;;7.38;0.98;;;;;;;16.63;54.52;100674.97;5052001;28;20029;-61
2023/12/29 10:03:48;;;;;;;3.10;0.85;;;;;;;16.65;53.43;100669.38;5051770;28;20052;-61
2023/12/29 10:06:16;;;;;;;4.30;0.77;;;;;;;16.65;54.41;100686.44;5039266;28;20112;-61
2023/12/29 10:08:45;;;;;;;3.72;0.77;;;;;;;16.66;53.86;100685.44;5035154;28;20033;-62
2023/12/29 10:11:11;;;;;;;4.15;0.93;;;;;;;16.60;53.86;100707.75;5035184;28;20040;-61
2023/12/29 10:13:38;;;;;;;1.92;0.38;;;;;;;16.61;54.54;100703.19;5051719;28;20033;-61
2023/12/29 10:16:19;;;;;;;5.55;0.60;;;;;;;16.65;54.30;100705.38;5051166;28;20262;-61
2023/12/29 10:19:11;;;;;;;4.55;0.90;;;;;;;16.65;54.10;100705.38;5051672;28;20037;-62
2023/12/29 10:21:56;;;;;;;3.50;0.60;;;;;;;16.75;54.33;100700.59;5049789;28;20387;-62
2023/12/29 10:24:22;;;;;;;5.57;0.80;;;;;;;16.79;54.08;100695.72;5052992;28;20106;-61
2023/12/29 10:26:49;;;;;;;2.78;0.77;;;;;;;16.79;54.74;100707.38;5051608;28;20036;-62
2023/12/29 10:29:15;;;;;;;3.15;0.57;;;;;;;16.76;54.74;100702.31;5051907;28;20076;-61
2023/12/29 10:31:40;;;;;;;8.10;0.73;;;;;;;16.82;53.80;100685.41;5051623;28;20502;-62
2023/12/29 10:34:32;;;;;;;3.70;0.70;;;;;;;16.84;54.95;100694.16;5052013;28;20060;-61
2023/12/29 10:36:58;;;;;;;1.90;0.60;;;;;;;16.80;54.38;100692.84;5046982;28;20474;-61
2023/12/29 10:39:24;;;;;;;1.98;0.77;;;;;;;16.83;54.83;100689.78;5051468;28;20411;-62
2023/12/29 10:41:50;;;;;;;4.65;1.17;;;;;;;16.93;54.59;100689.59;5051514;28;20399;-62
2023/12/29 10:44:16;;;;;;;7.50;1.17;;;;;;;17.06;54.28;100680.91;5052691;28;20125;-62
2023/12/29 10:46:41;;;;;;;3.38;0.75;;;;;;;17.05;54.71;100684.66;5051657;28;20051;-62
2023/12/29 10:49:11;;;;;;;2.50;0.65;;;;;;;17.01;54.51;100677.88;5050972;28;20033;-62
2023/12/29 10:51:37;;;;;;;4.43;0.57;;;;;;;16.97;54.75;100684.69;5051714;28;20080;-62
2023/12/29 10:54:03;;;;;;;3.42;0.93;;;;;;;16.96;54.44;100686.53;5051471;28;20040;-62
2023/12/29 10:56:29;;;;;;;3.10;0.47;;;;;;;16.95;53.91;100668.59;5051453;28;20033;-62
2023/12/29 10:59:05;;;;;;;7.22;0.98;;;;;;;16.98;55.00;100673.66;5052685;28;20377;-61
2023/12/29 11:01:32;;;;;;;6.13;0.95;;;;;;;17.02;53.97;100669.59;5051600;28;20395;-62
2023/12/29 11:04:06;;;;;;;4.85;1.00;;;;;;;16.99;54.11;100669.09;5034716;28;20053;-62
2023/12/29 11:06:47;;;;;;;8.25;1.15;;;;;;;16.98;54.21;100672.81;5053153;28;20034;-62
2023/12/29 11:09:12;;;;;;;1.77;0.60;;;;;;;16.98;54.32;100672.81;5051734;28;20076;-61
2023/12/29 11:11:38;;;;;;;8.82;0.88;;;;;;;17.00;55.04;100665.38;5068719;28;20511;-61
2023/12/29 11:14:04;;;;;;;2.97;0.50;;;;;;;16.97;54.74;100681.97;5052595;28;20051;-62
2023/12/29 11:16:31;;;;;;;5.03;0.63;;;;;;;17.02;54.22;100668.75;5054028;28;20451;-61
2023/12/29 11:18:58;;;;;;;1.92;0.50;;;;;;;17.01;54.17;100656.22;5053274;28;20033;-61
2023/12/29 11:21:26;;;;;;;5.88;1.92;;;;;;;17.04;54.88;100661.28;5035659;28;20116;-62